Decoded Metar for KOIN (OBERLIN in KS, USA) (IATA:OIN) | Meteo·Mobile Aviation Weather
aviador You're here:

KOIN Decoded Metar

OBERLIN in KS, USA
Report Time2019-06-18 14:55:00
UTC Time2019-06-18 15:02:56
Flight Rules ifr IFR
Wind060° at 03 kt
W.Decomp.*RWY 35: 1.5 kt HW 2.6 kt RCW
RWY 12: 1.1 kt HW 2.8 kt LCW
Visibility8047 m
Phenomena:Mist
Clouds:Broken 005 Hf
Overcast 009 Hf
Ceiling500 ft
Temp16°C (ISA +6)
Dew Point16°C (100% RH)
QNH1017 hPa
Density Alt3,570 ft
Elevation2,703 ft
Report Wrong Elevation
Raw Report
KOIN 181455Z AUTO 06003KT 5SM BR BKN005 OVC009 16/16 A3004 RMK AO1
T01640161=

Extra information for KOIN:More info

Airport Information Weather charts Add Link Nearby Venues Social comments

AIRNAV info for KOIN